createdAt,value
2022-09-23T00:00:20.633Z,51.70
2022-09-23T00:03:23.491Z,51.67
2022-09-23T00:06:29.128Z,51.65
2022-09-23T00:09:32.040Z,51.82
2022-09-23T00:12:35.285Z,51.72
2022-09-23T00:15:40.921Z,51.87
2022-09-23T00:18:43.968Z,51.87
2022-09-23T00:21:48.215Z,51.85
2022-09-23T00:24:51.044Z,52.00
2022-09-23T00:27:53.851Z,51.82
2022-09-23T00:30:56.831Z,51.97
2022-09-23T00:34:01.779Z,51.99
2022-09-23T00:37:06.307Z,51.90
2022-09-23T00:40:12.939Z,51.94
2022-09-23T00:43:16.142Z,51.86
2022-09-23T00:46:21.722Z,51.85
2022-09-23T00:49:28.716Z,51.92
2022-09-23T00:52:33.584Z,51.89
2022-09-23T00:55:41.227Z,51.89
2022-09-23T00:58:47.751Z,51.80
2022-09-23T01:01:54.704Z,51.97
2022-09-23T01:04:57.642Z,51.89
2022-09-23T01:08:04.131Z,52.11
2022-09-23T01:11:16.977Z,52.05
2022-09-23T01:14:32.204Z,51.85
2022-09-23T01:17:41.886Z,52.09
2022-09-23T01:21:23.782Z,52.04
2022-09-23T01:24:53.055Z,51.90
2022-09-23T01:28:13.390Z,51.93
2022-09-23T01:31:24.534Z,52.06
2022-09-23T01:34:35.798Z,52.08
2022-09-23T01:37:45.776Z,52.04
2022-09-23T01:40:53.063Z,52.03
2022-09-23T01:44:02.584Z,52.02
2022-09-23T01:47:12.329Z,51.94
2022-09-23T01:50:36.167Z,51.92
2022-09-23T01:53:46.953Z,52.00
2022-09-23T01:56:56.180Z,52.16
2022-09-23T02:00:04.394Z,52.07
2022-09-23T02:03:20.290Z,52.05
2022-09-23T02:06:28.436Z,52.19
2022-09-23T02:09:37.215Z,51.98
2022-09-23T02:12:42.790Z,52.02
2022-09-23T02:15:50.501Z,52.06
2022-09-23T02:18:58.566Z,52.05
2022-09-23T02:22:06.408Z,52.08
2022-09-23T02:25:12.497Z,52.11
2022-09-23T02:28:19.924Z,52.16
2022-09-23T02:31:31.091Z,52.05
2022-09-23T02:34:43.445Z,52.23
2022-09-23T02:37:55.097Z,52.12
2022-09-23T02:41:05.482Z,52.31
2022-09-23T02:44:11.382Z,52.14
2022-09-23T02:47:14.249Z,52.11
2022-09-23T02:50:19.150Z,52.13
2022-09-23T02:53:24.068Z,52.09
2022-09-23T02:56:26.889Z,52.18
2022-09-23T02:59:31.129Z,52.15
2022-09-23T03:02:57.404Z,52.06
2022-09-23T03:06:08.513Z,52.25
2022-09-23T03:09:22.421Z,52.15
2022-09-23T03:12:36.338Z,52.12
2022-09-23T03:15:51.426Z,52.19
2022-09-23T03:19:00.391Z,52.33
2022-09-23T03:22:09.656Z,52.11
2022-09-23T03:25:15.946Z,52.22
2022-09-23T03:28:20.253Z,52.12
2022-09-23T03:31:23.144Z,52.23
2022-09-23T03:34:29.576Z,52.24
2022-09-23T03:37:36.459Z,52.05
2022-09-23T03:40:43.491Z,52.10
2022-09-23T03:43:47.727Z,52.17
2022-09-23T03:46:50.697Z,52.18
2022-09-23T03:49:53.960Z,52.14
2022-09-23T03:52:58.383Z,52.18
2022-09-23T03:56:01.169Z,52.20
2022-09-23T03:59:04.087Z,52.27
2022-09-23T04:02:08.122Z,52.25
2022-09-23T04:05:12.509Z,52.15
2022-09-23T04:08:16.647Z,52.24
2022-09-23T04:11:19.413Z,52.31
2022-09-23T04:14:23.809Z,52.23
2022-09-23T04:17:26.592Z,52.29
2022-09-23T04:20:30.220Z,52.11
2022-09-23T04:23:34.486Z,52.21
2022-09-23T04:26:38.012Z,52.16
2022-09-23T04:29:41.422Z,52.30
2022-09-23T04:32:44.416Z,52.11
2022-09-23T04:35:51.710Z,52.20
2022-09-23T04:38:56.328Z,52.21
2022-09-23T04:41:59.669Z,52.28
2022-09-23T04:45:02.456Z,52.29
2022-09-23T04:48:05.384Z,52.20
2022-09-23T04:51:10.596Z,52.26
2022-09-23T04:54:15.418Z,52.24
2022-09-23T04:57:18.755Z,52.18
2022-09-23T05:00:23.191Z,52.42
2022-09-23T05:03:26.273Z,52.72
2022-09-23T05:06:31.411Z,53.14
2022-09-23T05:09:35.749Z,53.06
2022-09-23T05:12:38.571Z,52.91
2022-09-23T05:15:41.344Z,52.78
2022-09-23T05:18:45.200Z,52.69
2022-09-23T05:21:48.075Z,52.55
2022-09-23T05:24:52.523Z,52.55
2022-09-23T05:27:55.376Z,52.56
2022-09-23T05:31:03.951Z,52.52
2022-09-23T05:34:07.435Z,52.48
2022-09-23T05:37:10.267Z,52.44
2022-09-23T05:40:14.793Z,52.51
2022-09-23T05:43:17.723Z,52.41
2022-09-23T05:46:22.469Z,53.01
2022-09-23T05:49:42.552Z,52.88
2022-09-23T05:52:48.053Z,52.68
2022-09-23T05:55:54.271Z,52.58
2022-09-23T05:58:58.651Z,52.61
2022-09-23T06:02:01.787Z,52.67
2022-09-23T06:05:04.864Z,52.66
2022-09-23T06:08:07.857Z,52.74
2022-09-23T06:11:13.662Z,52.68
2022-09-23T06:14:16.517Z,52.61
2022-09-23T06:17:19.370Z,52.63
2022-09-23T06:20:22.320Z,52.80
2022-09-23T06:23:26.659Z,52.58
2022-09-23T06:26:33.811Z,52.52
2022-09-23T06:29:36.989Z,52.51
2022-09-23T06:32:39.820Z,52.49
2022-09-23T06:35:50.415Z,52.53
2022-09-23T06:38:57.985Z,52.56
2022-09-23T06:42:02.155Z,52.83
2022-09-23T06:45:05.501Z,52.83
2022-09-23T06:48:09.300Z,52.71
2022-09-23T06:51:19.173Z,53.15
2022-09-23T06:54:22.030Z,53.47
2022-09-23T06:57:26.213Z,53.37
2022-09-23T07:00:29.208Z,53.42
2022-09-23T07:03:32.142Z,53.62
2022-09-23T07:06:35.031Z,53.58
2022-09-23T07:09:38.544Z,53.70
2022-09-23T07:12:43.252Z,53.94
2022-09-23T07:15:50.751Z,53.91
2022-09-23T07:18:53.951Z,53.96
2022-09-23T07:21:57.071Z,53.72
2022-09-23T07:24:59.973Z,53.81
2022-09-23T07:28:04.871Z,53.70
2022-09-23T07:31:10.411Z,53.56
2022-09-23T07:34:13.340Z,53.36
2022-09-23T07:37:16.679Z,53.29
2022-09-23T07:40:19.615Z,53.17
2022-09-23T07:43:23.877Z,53.15
2022-09-23T07:46:29.272Z,53.32
2022-09-23T07:49:32.459Z,53.24
2022-09-23T07:52:37.532Z,53.37
2022-09-23T07:55:40.725Z,53.35
2022-09-23T07:58:44.995Z,53.30
2022-09-23T08:01:49.508Z,53.28
2022-09-23T08:04:53.298Z,53.36
2022-09-23T08:07:56.251Z,53.25
2022-09-23T08:11:02.507Z,53.30
2022-09-23T08:14:08.476Z,53.40
2022-09-23T08:17:12.754Z,53.44
2022-09-23T08:20:35.618Z,53.56
2022-09-23T08:23:38.511Z,53.58
2022-09-23T08:26:41.387Z,53.60
2022-09-23T08:29:45.782Z,53.66
2022-09-23T08:32:51.501Z,53.74
2022-09-23T08:36:00.871Z,53.61
2022-09-23T08:39:04.872Z,53.62
2022-09-23T08:42:17.366Z,53.57
2022-09-23T08:45:26.596Z,53.78
2022-09-23T08:48:31.997Z,53.65
2022-09-23T08:51:42.462Z,53.69
2022-09-23T08:54:45.389Z,53.78
2022-09-23T08:58:24.521Z,53.86
2022-09-23T09:01:41.121Z,53.80
2022-09-23T09:04:47.040Z,53.78
2022-09-23T09:07:50.941Z,53.67
2022-09-23T09:10:56.175Z,53.63
2022-09-23T09:14:06.753Z,53.70
2022-09-23T09:17:17.861Z,54.02
2022-09-23T09:20:24.517Z,53.96
2022-09-23T09:23:35.407Z,53.89
2022-09-23T09:26:41.019Z,53.77
2022-09-23T09:29:50.077Z,53.96
2022-09-23T09:32:59.395Z,53.91
2022-09-23T09:36:19.296Z,53.96
2022-09-23T09:39:26.073Z,53.97
2022-09-23T09:42:39.067Z,53.91
2022-09-23T09:45:57.954Z,54.04
2022-09-23T09:49:09.303Z,53.99
2022-09-23T09:52:21.515Z,53.95
2022-09-23T09:55:28.929Z,53.91
2022-09-23T09:58:43.762Z,53.98
2022-09-23T10:01:47.193Z,54.06
2022-09-23T10:04:58.858Z,54.04
2022-09-23T10:08:22.790Z,53.96
2022-09-23T10:11:25.714Z,53.96
2022-09-23T10:14:29.135Z,53.95
2022-09-23T10:17:35.387Z,53.96
2022-09-23T10:20:39.653Z,53.95
2022-09-23T10:23:44.974Z,54.04
2022-09-23T10:26:56.018Z,53.87
2022-09-23T10:30:00.994Z,53.83
2022-09-23T10:33:03.903Z,53.69
2022-09-23T10:36:10.757Z,53.60
2022-09-23T10:39:30.844Z,53.69
2022-09-23T10:43:18.603Z,53.53
2022-09-23T10:46:41.587Z,53.66
2022-09-23T10:50:12.025Z,53.62
2022-09-23T10:53:28.233Z,53.54
2022-09-23T10:56:37.090Z,53.65
2022-09-23T10:59:56.216Z,53.75
2022-09-23T11:03:30.211Z,54.09
2022-09-23T11:06:46.171Z,54.00
2022-09-23T11:10:18.555Z,54.21
2022-09-23T11:13:44.042Z,54.28
2022-09-23T11:16:59.841Z,54.33
2022-09-23T11:20:26.017Z,54.11
2022-09-23T11:23:49.836Z,54.13
2022-09-23T11:27:06.385Z,53.51
2022-09-23T11:30:11.604Z,54.24
2022-09-23T11:33:27.732Z,54.27
2022-09-23T11:36:34.805Z,53.82
2022-09-23T11:39:45.127Z,54.59
2022-09-23T11:42:56.247Z,55.17
2022-09-23T11:46:03.881Z,55.01
2022-09-23T11:49:14.486Z,55.40
2022-09-23T11:52:23.081Z,55.40
2022-09-23T11:55:32.363Z,55.33
2022-09-23T11:58:41.761Z,55.28
2022-09-23T12:01:49.466Z,55.59
2022-09-23T12:05:01.265Z,55.47
2022-09-23T12:08:13.988Z,55.60
2022-09-23T12:11:26.452Z,55.38
2022-09-23T12:14:40.187Z,55.37
2022-09-23T12:18:06.896Z,55.21
2022-09-23T12:21:49.194Z,55.20
2022-09-23T12:24:58.736Z,55.23
2022-09-23T12:28:06.056Z,55.16
2022-09-23T12:31:14.698Z,55.12
2022-09-23T12:34:26.096Z,55.25
2022-09-23T12:37:35.531Z,55.18
2022-09-23T12:40:44.035Z,55.04
2022-09-23T12:43:56.306Z,55.03
2022-09-23T12:47:34.682Z,55.21
2022-09-23T12:50:53.443Z,55.49
2022-09-23T12:54:32.234Z,55.29
2022-09-23T12:57:42.639Z,55.45
2022-09-23T13:01:09.459Z,55.25
2022-09-23T13:04:48.977Z,55.23
2022-09-23T13:07:58.695Z,55.17
2022-09-23T13:11:03.649Z,55.11
2022-09-23T13:14:07.226Z,55.18
2022-09-23T13:17:25.636Z,55.14
2022-09-23T13:20:38.395Z,55.09
2022-09-23T13:24:19.185Z,55.06
2022-09-23T13:27:26.597Z,55.07
2022-09-23T13:30:29.778Z,55.34
2022-09-23T13:33:39.431Z,55.49
2022-09-23T13:36:46.315Z,55.48
2022-09-23T13:39:50.800Z,55.39
2022-09-23T13:42:58.989Z,55.15
2022-09-23T13:46:05.321Z,55.09
2022-09-23T13:49:23.130Z,55.07
2022-09-23T13:52:29.850Z,55.13
2022-09-23T13:55:37.326Z,55.05
2022-09-23T13:58:40.794Z,55.17
2022-09-23T14:01:43.597Z,55.02
2022-09-23T14:04:46.656Z,55.17
2022-09-23T14:07:49.870Z,54.99
2022-09-23T14:10:55.269Z,55.18
2022-09-23T14:13:59.007Z,55.37
2022-09-23T14:17:02.579Z,55.34
2022-09-23T14:20:05.756Z,55.55
2022-09-23T14:23:14.010Z,55.35
2022-09-23T14:26:19.265Z,55.03
2022-09-23T14:29:25.692Z,54.95
2022-09-23T14:32:29.964Z,55.25
2022-09-23T14:35:42.167Z,55.16
2022-09-23T14:38:53.098Z,55.32
2022-09-23T14:41:58.490Z,55.48
2022-09-23T14:45:01.325Z,55.25
2022-09-23T14:48:08.468Z,55.09
2022-09-23T14:51:16.220Z,55.21
2022-09-23T14:54:33.036Z,55.20
2022-09-23T14:57:44.626Z,55.26
2022-09-23T15:00:53.501Z,55.62
2022-09-23T15:03:58.286Z,55.80
2022-09-23T15:07:05.340Z,56.23
2022-09-23T15:10:09.839Z,56.14
2022-09-23T15:13:17.686Z,55.90
2022-09-23T15:16:27.763Z,55.78
2022-09-23T15:19:31.704Z,55.86
2022-09-23T15:22:44.105Z,55.77
2022-09-23T15:25:52.367Z,55.86
2022-09-23T15:28:58.381Z,55.85
2022-09-23T15:32:01.489Z,55.91
2022-09-23T15:35:05.860Z,55.97
2022-09-23T15:38:10.800Z,55.99
2022-09-23T15:41:14.736Z,56.11
2022-09-23T15:44:21.672Z,56.06
2022-09-23T15:47:24.537Z,56.21
2022-09-23T15:50:28.391Z,56.28
2022-09-23T15:53:31.673Z,56.11
2022-09-23T15:56:34.913Z,56.13
2022-09-23T15:59:39.184Z,56.25
2022-09-23T16:02:43.239Z,56.20
2022-09-23T16:05:47.595Z,56.15
2022-09-23T16:08:51.857Z,56.25
2022-09-23T16:11:55.036Z,56.17
2022-09-23T16:14:59.209Z,56.32
2022-09-23T16:18:02.448Z,56.31
2022-09-23T16:21:07.639Z,56.11
2022-09-23T16:24:17.330Z,56.15
2022-09-23T16:27:20.312Z,56.37
2022-09-23T16:30:25.345Z,56.41
2022-09-23T16:33:28.569Z,56.42
2022-09-23T16:36:32.986Z,56.24
2022-09-23T16:39:35.772Z,56.41
2022-09-23T16:42:39.273Z,56.26
2022-09-23T16:45:45.782Z,56.22
2022-09-23T16:48:52.580Z,56.24
2022-09-23T16:51:56.234Z,56.13
2022-09-23T16:54:59.033Z,56.14
2022-09-23T16:58:01.912Z,56.19
2022-09-23T17:01:25.688Z,56.21
2022-09-23T17:04:29.089Z,56.37
2022-09-23T17:07:32.233Z,56.44
2022-09-23T17:10:35.176Z,56.35
2022-09-23T17:13:40.474Z,56.33
2022-09-23T17:16:45.431Z,56.20
2022-09-23T17:19:48.238Z,56.20
2022-09-23T17:22:51.066Z,56.08
2022-09-23T17:25:53.929Z,56.08
2022-09-23T17:28:59.326Z,56.16
2022-09-23T17:32:04.287Z,56.16
2022-09-23T17:35:07.973Z,56.03
2022-09-23T17:38:10.811Z,56.16
2022-09-23T17:41:15.250Z,56.01
2022-09-23T17:44:18.104Z,56.21
2022-09-23T17:47:22.236Z,56.10
2022-09-23T17:50:25.123Z,56.02
2022-09-23T17:53:31.015Z,55.99
2022-09-23T17:56:33.967Z,55.96
2022-09-23T17:59:36.677Z,55.96
2022-09-23T18:02:40.717Z,56.02
2022-09-23T18:05:43.441Z,55.92
2022-09-23T18:08:48.127Z,56.03
2022-09-23T18:11:50.881Z,56.01
2022-09-23T18:14:53.624Z,56.01
2022-09-23T18:17:58.880Z,55.86
2022-09-23T18:21:02.705Z,55.99
2022-09-23T18:24:30.835Z,55.97
2022-09-23T18:27:28.452Z,55.98
2022-09-23T18:30:33.565Z,56.04
2022-09-23T18:33:38.667Z,55.99
2022-09-23T18:36:41.759Z,56.14
2022-09-23T18:39:44.849Z,56.24
2022-09-23T18:42:48.443Z,56.39
2022-09-23T18:45:58.292Z,56.56
2022-09-23T18:49:19.808Z,56.53
2022-09-23T18:52:22.649Z,56.64
2022-09-23T18:55:25.896Z,56.62
2022-09-23T18:58:28.731Z,56.34
2022-09-23T19:01:31.639Z,56.50
2022-09-23T19:04:36.021Z,56.59
2022-09-23T19:07:38.957Z,56.68
2022-09-23T19:10:41.748Z,56.81
2022-09-23T19:13:45.067Z,56.40
2022-09-23T19:16:49.250Z,56.35
2022-09-23T19:19:53.515Z,56.34
2022-09-23T19:22:56.330Z,56.24
2022-09-23T19:26:02.570Z,56.16
2022-09-23T19:29:08.178Z,56.22
2022-09-23T19:32:12.151Z,56.20
2022-09-23T19:35:16.547Z,56.26
2022-09-23T19:38:21.380Z,56.29
2022-09-23T19:41:24.756Z,56.13
2022-09-23T19:44:28.538Z,56.17
2022-09-23T19:47:31.671Z,56.21
2022-09-23T19:50:39.125Z,56.25
2022-09-23T19:53:42.876Z,56.10
2022-09-23T19:56:47.119Z,56.30
2022-09-23T19:59:50.453Z,56.25
2022-09-23T20:02:53.306Z,56.36
2022-09-23T20:05:58.078Z,56.19
2022-09-23T20:09:01.811Z,56.11
2022-09-23T20:12:04.884Z,56.14
2022-09-23T20:15:08.770Z,56.16
2022-09-23T20:18:11.630Z,56.16
2022-09-23T20:21:16.550Z,56.30
2022-09-23T20:24:19.454Z,56.28
2022-09-23T20:27:22.383Z,56.21
2022-09-23T20:30:25.816Z,56.17
2022-09-23T20:33:30.174Z,56.15
2022-09-23T20:36:35.030Z,56.18
2022-09-23T20:39:38.127Z,56.19
2022-09-23T20:42:40.949Z,56.23
2022-09-23T20:45:51.007Z,56.27
2022-09-23T20:48:56.644Z,56.20
2022-09-23T20:52:02.654Z,56.13
2022-09-23T20:55:06.235Z,56.22
2022-09-23T20:58:09.231Z,56.09
2022-09-23T21:01:12.995Z,56.27
2022-09-23T21:04:16.162Z,56.08
2022-09-23T21:07:20.509Z,56.17
2022-09-23T21:10:23.438Z,56.13
2022-09-23T21:13:26.528Z,56.12
2022-09-23T21:16:29.987Z,56.09
2022-09-23T21:19:35.187Z,56.23
2022-09-23T21:22:39.359Z,56.10
2022-09-23T21:25:44.906Z,56.16
2022-09-23T21:28:49.827Z,56.17
2022-09-23T21:31:52.702Z,56.17
2022-09-23T21:34:55.660Z,56.13
2022-09-23T21:38:02.145Z,56.28
2022-09-23T21:41:07.875Z,56.25
2022-09-23T21:44:11.963Z,56.26
2022-09-23T21:47:14.890Z,56.23
2022-09-23T21:50:18.169Z,56.17
2022-09-23T21:53:23.673Z,56.24
2022-09-23T21:56:27.865Z,56.22
2022-09-23T21:59:30.865Z,56.20
2022-09-23T22:02:34.226Z,56.26
2022-09-23T22:05:37.939Z,56.13
2022-09-23T22:08:44.296Z,56.08
2022-09-23T22:12:04.757Z,56.16
2022-09-23T22:15:09.804Z,55.99
2022-09-23T22:18:12.662Z,56.11
2022-09-23T22:21:15.414Z,56.14
2022-09-23T22:24:19.700Z,56.06
2022-09-23T22:27:23.828Z,56.32
2022-09-23T22:30:44.024Z,56.35
2022-09-23T22:33:50.269Z,56.32
2022-09-23T22:36:53.072Z,56.38
2022-09-23T22:39:57.242Z,56.53
2022-09-23T22:43:00.055Z,56.45
2022-09-23T22:46:02.997Z,56.34
2022-09-23T22:49:07.395Z,56.43
2022-09-23T22:52:11.248Z,56.30
2022-09-23T22:55:15.404Z,56.22
2022-09-23T22:58:31.615Z,56.38
2022-09-23T23:01:36.083Z,56.37
2022-09-23T23:04:38.897Z,56.29
2022-09-23T23:07:41.805Z,56.41
2022-09-23T23:10:45.960Z,56.37
2022-09-23T23:13:48.908Z,56.37
2022-09-23T23:16:51.682Z,56.40
2022-09-23T23:19:55.081Z,56.35
2022-09-23T23:22:58.010Z,56.33
2022-09-23T23:26:10.030Z,56.31
2022-09-23T23:29:14.610Z,56.39
2022-09-23T23:32:17.787Z,56.29
2022-09-23T23:35:20.656Z,56.40
2022-09-23T23:38:23.479Z,56.33
2022-09-23T23:41:28.810Z,56.27
2022-09-23T23:44:34.503Z,56.24
2022-09-23T23:47:37.374Z,56.25
2022-09-23T23:50:40.529Z,56.22
2022-09-23T23:53:44.020Z,56.31
2022-09-23T23:56:48.217Z,56.25
2022-09-23T23:59:51.111Z,56.11
